Saint Elizabeth, MO

7:33 PM CDT on September 17, 2014 (GMT -0500)
Scrivner Rd | Change Station
CLOSE
Current Station
Personal Weather Station
Location: Russellville, MO
Elevation: 856 ft
Nearby Weather Stations

Elev 856 ft 38.45 °N, 92.36 °W | Updated 5 seconds ago

Overcast
Overcast
66.7 °F
Feels Like 66.7 °F
N
1.6
Wind Variable Wind from North
Gusts 2.2 mph

Today
High -- | Low -- °F
--% Chance of Precip.
Yesterday
High -- | Low -- °F
Precip. -- in
6:52 AM 7:13 PM
Waning Crescent, 32% visible
Pressure 29.90 in
Visibility 10.0 miles
Clouds Overcast 2400 ft
Dew Point 66 °F
Humidity 98%
Rainfall 0.00 in
Snow Depth Not available.
UV 0.0 out of 12
Pollen 6.60 out of 12
Air Quality Not available.
Flu Activity Not available.
METAR KAIZ 180015Z AUTO 10004KT 10SM OVC024 22/18 A2990 RMK AO1

More Conditions Fewer Conditions

Pressure 29.90 in
Visibility 10.0 miles
Clouds Overcast 2400 ft
Dew Point 66 °F
Humidity 98%
Rainfall 0.00 in
Snow Depth Not available.
UV 0.0 out of 12
Pollen 6.60 out of 12
Air Quality Not available.
Flu Activity Not available.
METAR KAIZ 180015Z AUTO 10004KT 10SM OVC024 22/18 A2990 RMK AO1

More Conditions Fewer Conditions

10-Day Weather Forecast

Almanac

Astronomy

Sep. 17, 2014 Rise Set
Actual Time 6:52 AM CDT 7:13 PM CDT
Civil Twilight 6:26 AM CDT 7:40 PM CDT
Nautical Twilight 5:54 AM CDT 8:11 PM CDT
Astronomical Twilight 5:23 AM CDT 8:42 PM CDT
Moon 12:56 AM CDT (9/17) 3:20 PM CDT (9/17)
Length of Visible Light 13h 14m
Length of Day
12h 21m
Tomorrow will be 2m 27s shorter.
Waning Crescent, 32% of the Moon is Illuminated
Today
Waning Crescent
Sep 24
New
Oct 1
First Quarter
Oct 8
Full
Oct 15
Last Quarter

Today's Extremes

State Highs State Lows

Community

WunderPhotos

Upload Photos

1,754,225 photos uploaded!

Nearby

Snow Depth

Station Depth Elevation
No new snow has been reported.

Earthquake Activity

City Distance Mag. Time & Date
No recent earthquake activity has been reported nearby.
Minimum magnitude displayed is 2.5.

Coastal Water Temperatures

Place Temperature
No Stations Reporting

Nearby Weather Stations